sensor_id;sensor_type;location;lat;lon;timestamp;pressure;altitude;pressure_sealevel;temperature;humidity
4085;BME280;2057;50.858;6.572;2023-02-28T00:00:19;101669.72;;;0.20;85.06
4085;BME280;2057;50.858;6.572;2023-02-28T00:02:45;101666.44;;;0.28;86.32
4085;BME280;2057;50.858;6.572;2023-02-28T00:05:12;101665.88;;;0.31;85.98
4085;BME280;2057;50.858;6.572;2023-02-28T00:07:38;101678.41;;;0.24;85.92
4085;BME280;2057;50.858;6.572;2023-02-28T00:10:08;101670.72;;;0.29;86.12
4085;BME280;2057;50.858;6.572;2023-02-28T00:12:35;101666.94;;;0.33;87.23
4085;BME280;2057;50.858;6.572;2023-02-28T00:15:01;101666.38;;;0.12;86.36
4085;BME280;2057;50.858;6.572;2023-02-28T00:17:26;101669.97;;;0.30;86.79
4085;BME280;2057;50.858;6.572;2023-02-28T00:19:52;101673.16;;;0.37;86.00
4085;BME280;2057;50.858;6.572;2023-02-28T00:22:18;101675.09;;;0.39;85.37
4085;BME280;2057;50.858;6.572;2023-02-28T00:24:46;101669.31;;;0.24;85.61
4085;BME280;2057;50.858;6.572;2023-02-28T00:27:13;101667.53;;;0.23;85.71
4085;BME280;2057;50.858;6.572;2023-02-28T00:29:38;101665.59;;;0.21;86.04
4085;BME280;2057;50.858;6.572;2023-02-28T00:32:05;101668.25;;;0.22;86.54
4085;BME280;2057;50.858;6.572;2023-02-28T00:34:30;101669.22;;;0.15;85.47
4085;BME280;2057;50.858;6.572;2023-02-28T00:36:56;101674.78;;;0.06;86.32
4085;BME280;2057;50.858;6.572;2023-02-28T00:39:23;101670.47;;;0.12;85.99
4085;BME280;2057;50.858;6.572;2023-02-28T00:41:51;101673.38;;;0.01;86.45
4085;BME280;2057;50.858;6.572;2023-02-28T00:44:16;101678.47;;;-0.21;87.26
4085;BME280;2057;50.858;6.572;2023-02-28T00:46:42;101672.06;;;-0.19;87.31
4085;BME280;2057;50.858;6.572;2023-02-28T00:49:07;101671.22;;;-0.27;87.83
4085;BME280;2057;50.858;6.572;2023-02-28T00:51:32;101668.50;;;-0.14;88.36
4085;BME280;2057;50.858;6.572;2023-02-28T00:53:58;101667.44;;;-0.16;88.35
4085;BME280;2057;50.858;6.572;2023-02-28T00:56:23;101671.31;;;-0.11;87.97
4085;BME280;2057;50.858;6.572;2023-02-28T00:58:48;101675.03;;;-0.07;87.46
4085;BME280;2057;50.858;6.572;2023-02-28T01:01:17;101680.66;;;-0.24;87.18
4085;BME280;2057;50.858;6.572;2023-02-28T01:03:42;101675.00;;;-0.30;88.61
4085;BME280;2057;50.858;6.572;2023-02-28T01:06:07;101672.22;;;-0.55;89.04
4085;BME280;2057;50.858;6.572;2023-02-28T01:08:33;101676.13;;;-0.50;90.12
4085;BME280;2057;50.858;6.572;2023-02-28T01:11:07;101683.50;;;-0.28;89.36
4085;BME280;2057;50.858;6.572;2023-02-28T01:13:32;101680.94;;;-0.44;90.19
4085;BME280;2057;50.858;6.572;2023-02-28T01:15:58;101681.22;;;-0.34;89.38
4085;BME280;2057;50.858;6.572;2023-02-28T01:18:24;101685.66;;;-0.24;88.96
4085;BME280;2057;50.858;6.572;2023-02-28T01:20:49;101685.72;;;-0.46;89.65
4085;BME280;2057;50.858;6.572;2023-02-28T01:23:18;101684.28;;;-0.44;90.02
4085;BME280;2057;50.858;6.572;2023-02-28T01:25:45;101690.00;;;-0.45;90.15
4085;BME280;2057;50.858;6.572;2023-02-28T01:28:10;101683.19;;;-0.32;90.17
4085;BME280;2057;50.858;6.572;2023-02-28T01:30:38;101678.31;;;-0.23;89.69
4085;BME280;2057;50.858;6.572;2023-02-28T01:33:03;101683.19;;;-0.32;89.19
4085;BME280;2057;50.858;6.572;2023-02-28T01:35:32;101685.66;;;-0.24;89.30
4085;BME280;2057;50.858;6.572;2023-02-28T01:37:57;101680.31;;;-0.27;88.59
4085;BME280;2057;50.858;6.572;2023-02-28T01:40:23;101685.69;;;-0.32;89.93
4085;BME280;2057;50.858;6.572;2023-02-28T01:42:48;101684.22;;;-0.29;89.29
4085;BME280;2057;50.858;6.572;2023-02-28T01:47:55;101684.03;;;-0.24;89.73
4085;BME280;2057;50.858;6.572;2023-02-28T01:50:27;101671.34;;;-0.18;89.55
4085;BME280;2057;50.858;6.572;2023-02-28T01:52:56;101675.97;;;-0.21;89.06
4085;BME280;2057;50.858;6.572;2023-02-28T01:55:23;101672.41;;;-0.16;89.58
4085;BME280;2057;50.858;6.572;2023-02-28T01:57:55;101671.16;;;-0.12;89.33
4085;BME280;2057;50.858;6.572;2023-02-28T02:00:24;101663.69;;;-0.20;88.82
4085;BME280;2057;50.858;6.572;2023-02-28T02:02:55;101662.28;;;-0.18;88.95
4085;BME280;2057;50.858;6.572;2023-02-28T02:05:27;101655.50;;;-0.19;88.79
4085;BME280;2057;50.858;6.572;2023-02-28T02:08:23;101664.41;;;-0.21;88.93
4085;BME280;2057;50.858;6.572;2023-02-28T02:10:57;101659.81;;;-0.32;88.82
4085;BME280;2057;50.858;6.572;2023-02-28T02:16:51;101662.47;;;-0.23;89.50
4085;BME280;2057;50.858;6.572;2023-02-28T02:25:35;101659.66;;;-0.34;89.25
4085;BME280;2057;50.858;6.572;2023-02-28T02:36:33;101645.50;;;-0.49;90.06
4085;BME280;2057;50.858;6.572;2023-02-28T02:41:53;101646.88;;;-0.44;89.90
4085;BME280;2057;50.858;6.572;2023-02-28T02:44:36;101640.84;;;-0.53;89.88
4085;BME280;2057;50.858;6.572;2023-02-28T02:47:12;101640.34;;;-0.58;90.00
4085;BME280;2057;50.858;6.572;2023-02-28T02:49:44;101641.94;;;-0.51;90.44
4085;BME280;2057;50.858;6.572;2023-02-28T02:52:15;101641.88;;;-0.44;89.94
4085;BME280;2057;50.858;6.572;2023-02-28T02:54:44;101641.00;;;-0.44;89.88
4085;BME280;2057;50.858;6.572;2023-02-28T02:57:30;101645.50;;;-0.49;89.94
4085;BME280;2057;50.858;6.572;2023-02-28T02:59:59;101643.00;;;-0.49;89.73
4085;BME280;2057;50.858;6.572;2023-02-28T03:02:28;101639.06;;;-0.54;89.66
4085;BME280;2057;50.858;6.572;2023-02-28T03:05:02;101641.75;;;-0.53;90.13
4085;BME280;2057;50.858;6.572;2023-02-28T03:07:28;101648.69;;;-0.50;89.90
4085;BME280;2057;50.858;6.572;2023-02-28T03:09:55;101642.63;;;-0.52;89.86
4085;BME280;2057;50.858;6.572;2023-02-28T03:12:31;101642.84;;;-0.58;90.23
4085;BME280;2057;50.858;6.572;2023-02-28T03:15:29;101638.41;;;-0.60;89.95
4085;BME280;2057;50.858;6.572;2023-02-28T03:18:02;101638.75;;;-0.57;90.02
4085;BME280;2057;50.858;6.572;2023-02-28T03:24:02;101638.59;;;-0.66;89.72
4085;BME280;2057;50.858;6.572;2023-02-28T03:26:21;101634.84;;;-0.63;90.54
4085;BME280;2057;50.858;6.572;2023-02-28T03:31:44;101633.97;;;-0.63;90.29
4085;BME280;2057;50.858;6.572;2023-02-28T03:34:25;101634.28;;;-0.60;90.11
4085;BME280;2057;50.858;6.572;2023-02-28T03:36:57;101631.78;;;-0.53;89.90
4085;BME280;2057;50.858;6.572;2023-02-28T03:39:38;101633.41;;;-0.60;88.86
4085;BME280;2057;50.858;6.572;2023-02-28T03:42:17;101635.19;;;-0.59;89.82
4085;BME280;2057;50.858;6.572;2023-02-28T03:47:26;101631.59;;;-0.54;89.78
4085;BME280;2057;50.858;6.572;2023-02-28T03:49:57;101630.72;;;-0.55;89.21
4085;BME280;2057;50.858;6.572;2023-02-28T03:52:28;101631.28;;;-0.57;88.79
4085;BME280;2057;50.858;6.572;2023-02-28T03:55:00;101629.84;;;-0.63;89.02
4085;BME280;2057;50.858;6.572;2023-02-28T03:57:43;101629.50;;;-0.58;88.54
4085;BME280;2057;50.858;6.572;2023-02-28T04:00:29;101629.09;;;-0.54;88.63
4085;BME280;2057;50.858;6.572;2023-02-28T04:02:57;101631.78;;;-0.53;88.49
4085;BME280;2057;50.858;6.572;2023-02-28T04:05:23;101635.88;;;-0.53;88.28
4085;BME280;2057;50.858;6.572;2023-02-28T04:07:51;101633.53;;;-0.52;87.92
4085;BME280;2057;50.858;6.572;2023-02-28T04:10:16;101634.28;;;-0.53;87.95
4085;BME280;2057;50.858;6.572;2023-02-28T04:12:42;101636.03;;;-0.52;87.68
4085;BME280;2057;50.858;6.572;2023-02-28T04:15:08;101640.91;;;-0.68;87.48
4085;BME280;2057;50.858;6.572;2023-02-28T04:17:33;101637.88;;;-0.65;87.63
4085;BME280;2057;50.858;6.572;2023-02-28T04:19:58;101640.25;;;-0.81;86.77
4085;BME280;2057;50.858;6.572;2023-02-28T04:22:24;101635.63;;;-0.85;86.81
4085;BME280;2057;50.858;6.572;2023-02-28T04:24:52;101640.25;;;-0.81;87.02
4085;BME280;2057;50.858;6.572;2023-02-28T04:27:20;101638.97;;;-0.77;86.61
4085;BME280;2057;50.858;6.572;2023-02-28T04:29:48;101635.97;;;-0.75;86.61
4085;BME280;2057;50.858;6.572;2023-02-28T04:32:16;101636.72;;;-0.83;86.18
4085;BME280;2057;50.858;6.572;2023-02-28T04:34:41;101642.41;;;-0.99;86.06
4085;BME280;2057;50.858;6.572;2023-02-28T04:37:06;101649.00;;;-0.92;86.65
4085;BME280;2057;50.858;6.572;2023-02-28T04:39:35;101643.78;;;-0.72;86.30
4085;BME280;2057;50.858;6.572;2023-02-28T04:42:01;101646.47;;;-0.85;85.09
4085;BME280;2057;50.858;6.572;2023-02-28T04:44:26;101645.94;;;-0.82;85.74
4085;BME280;2057;50.858;6.572;2023-02-28T04:46:52;101646.09;;;-0.73;85.87
4085;BME280;2057;50.858;6.572;2023-02-28T04:49:17;101649.84;;;-0.77;85.81
4085;BME280;2057;50.858;6.572;2023-02-28T04:51:42;101647.34;;;-0.70;86.28
4085;BME280;2057;50.858;6.572;2023-02-28T04:54:08;101648.59;;;-0.73;85.94
4085;BME280;2057;50.858;6.572;2023-02-28T04:56:33;101650.91;;;-0.68;86.38
4085;BME280;2057;50.858;6.572;2023-02-28T04:58:59;101651.63;;;-0.76;86.30
4085;BME280;2057;50.858;6.572;2023-02-28T05:01:34;101658.41;;;-0.75;86.09
4085;BME280;2057;50.858;6.572;2023-02-28T05:04:02;101661.13;;;-0.88;85.69
4085;BME280;2057;50.858;6.572;2023-02-28T05:06:29;101661.97;;;-0.80;86.42
4085;BME280;2057;50.858;6.572;2023-02-28T05:08:55;101659.84;;;-0.77;86.67
4085;BME280;2057;50.858;6.572;2023-02-28T05:11:26;101660.72;;;-0.76;86.62
4085;BME280;2057;50.858;6.572;2023-02-28T05:13:52;101667.66;;;-0.81;86.82
4085;BME280;2057;50.858;6.572;2023-02-28T05:16:18;101662.34;;;-0.84;87.02
4085;BME280;2057;50.858;6.572;2023-02-28T05:18:44;101663.78;;;-0.93;86.88
4085;BME280;2057;50.858;6.572;2023-02-28T05:21:28;101660.06;;;-0.97;87.73
4085;BME280;2057;50.858;6.572;2023-02-28T05:23:54;101669.47;;;-0.95;88.31
4085;BME280;2057;50.858;6.572;2023-02-28T05:26:20;101674.50;;;-1.02;88.48
4085;BME280;2057;50.858;6.572;2023-02-28T05:28:45;101668.25;;;-0.98;88.70
4085;BME280;2057;50.858;6.572;2023-02-28T05:31:11;101665.56;;;-1.07;88.79
4085;BME280;2057;50.858;6.572;2023-02-28T05:33:36;101664.50;;;-0.95;89.09
4085;BME280;2057;50.858;6.572;2023-02-28T05:36:02;101658.44;;;-0.97;88.50
4085;BME280;2057;50.858;6.572;2023-02-28T05:38:28;101662.19;;;-1.00;88.86
4085;BME280;2057;50.858;6.572;2023-02-28T05:40:53;101661.66;;;-0.98;89.16
4085;BME280;2057;50.858;6.572;2023-02-28T05:43:18;101665.56;;;-1.00;88.95
4085;BME280;2057;50.858;6.572;2023-02-28T05:45:44;101665.94;;;-1.04;89.29
4085;BME280;2057;50.858;6.572;2023-02-28T05:48:11;101664.88;;;-1.06;89.82
4085;BME280;2057;50.858;6.572;2023-02-28T05:50:36;101673.78;;;-1.01;89.51
4085;BME280;2057;50.858;6.572;2023-02-28T05:53:04;101671.63;;;-1.05;89.46
4085;BME280;2057;50.858;6.572;2023-02-28T05:55:30;101662.03;;;-1.02;89.64
4085;BME280;2057;50.858;6.572;2023-02-28T05:57:55;101667.91;;;-1.08;89.06
4085;BME280;2057;50.858;6.572;2023-02-28T06:00:21;101670.22;;;-1.10;89.59
4085;BME280;2057;50.858;6.572;2023-02-28T06:02:46;101668.63;;;-1.09;89.62
4085;BME280;2057;50.858;6.572;2023-02-28T06:05:17;101664.53;;;-1.09;89.84
4085;BME280;2057;50.858;6.572;2023-02-28T06:07:43;101664.53;;;-1.09;89.33
4085;BME280;2057;50.858;6.572;2023-02-28T06:10:10;101660.97;;;-1.11;89.73
4085;BME280;2057;50.858;6.572;2023-02-28T06:12:37;101661.53;;;-1.14;89.70
4085;BME280;2057;50.858;6.572;2023-02-28T06:15:03;101652.78;;;-1.10;89.91
4085;BME280;2057;50.858;6.572;2023-02-28T06:17:28;101661.31;;;-1.15;89.94
4085;BME280;2057;50.858;6.572;2023-02-28T06:19:54;101669.16;;;-1.12;90.11
4085;BME280;2057;50.858;6.572;2023-02-28T06:22:19;101669.16;;;-1.19;90.18
4085;BME280;2057;50.858;6.572;2023-02-28T06:24:44;101673.81;;;-1.30;90.03
4085;BME280;2057;50.858;6.572;2023-02-28T06:27:10;101665.44;;;-1.23;90.24
4085;BME280;2057;50.858;6.572;2023-02-28T06:29:35;101683.59;;;-1.24;90.25
4085;BME280;2057;50.858;6.572;2023-02-28T06:32:01;101677.38;;;-1.28;90.16
4085;BME280;2057;50.858;6.572;2023-02-28T06:34:30;101683.59;;;-1.24;90.57
4085;BME280;2057;50.858;6.572;2023-02-28T06:36:55;101685.69;;;-1.20;90.16
4085;BME280;2057;50.858;6.572;2023-02-28T06:39:21;101685.00;;;-1.19;89.77
4085;BME280;2057;50.858;6.572;2023-02-28T06:41:46;101679.84;;;-1.20;89.93
4085;BME280;2057;50.858;6.572;2023-02-28T06:44:15;101689.44;;;-1.23;90.20
4085;BME280;2057;50.858;6.572;2023-02-28T06:46:42;101697.28;;;-1.20;90.01
4085;BME280;2057;50.858;6.572;2023-02-28T06:49:08;101704.06;;;-1.27;89.68
4085;BME280;2057;50.858;6.572;2023-02-28T06:51:34;101699.78;;;-1.20;89.75
4085;BME280;2057;50.858;6.572;2023-02-28T06:53:59;101703.53;;;-1.24;89.64
4085;BME280;2057;50.858;6.572;2023-02-28T06:56:25;101709.75;;;-1.20;89.99
4085;BME280;2057;50.858;6.572;2023-02-28T06:58:51;101710.09;;;-1.17;90.03
4085;BME280;2057;50.858;6.572;2023-02-28T07:01:20;101716.50;;;-1.19;89.95
4085;BME280;2057;50.858;6.572;2023-02-28T07:03:47;101711.53;;;-1.19;89.87
4085;BME280;2057;50.858;6.572;2023-02-28T07:06:20;101727.72;;;-1.16;89.67
4085;BME280;2057;50.858;6.572;2023-02-28T07:08:48;101723.78;;;-1.21;89.19
4085;BME280;2057;50.858;6.572;2023-02-28T07:11:13;101726.28;;;-1.21;89.77
4085;BME280;2057;50.858;6.572;2023-02-28T07:13:39;101722.38;;;-1.12;89.84
4085;BME280;2057;50.858;6.572;2023-02-28T07:16:06;101731.09;;;-1.22;89.14
4085;BME280;2057;50.858;6.572;2023-02-28T07:18:32;101728.06;;;-1.20;88.94
4085;BME280;2057;50.858;6.572;2023-02-28T07:20:58;101738.94;;;-1.19;88.73
4085;BME280;2057;50.858;6.572;2023-02-28T07:23:23;101730.38;;;-1.07;88.98
4085;BME280;2057;50.858;6.572;2023-02-28T07:25:50;101735.19;;;-1.30;88.51
4085;BME280;2057;50.858;6.572;2023-02-28T07:28:18;101737.84;;;-1.14;88.72
4085;BME280;2057;50.858;6.572;2023-02-28T07:30:43;101727.88;;;-1.00;88.99
4085;BME280;2057;50.858;6.572;2023-02-28T07:33:10;101734.28;;;-0.95;88.28
4085;BME280;2057;50.858;6.572;2023-02-28T07:35:35;101727.88;;;-1.07;86.63
4085;BME280;2057;50.858;6.572;2023-02-28T07:38:01;101729.66;;;-1.06;85.80
4085;BME280;2057;50.858;6.572;2023-02-28T07:40:28;101728.25;;;-1.04;85.18
4085;BME280;2057;50.858;6.572;2023-02-28T07:42:53;101731.63;;;-0.96;84.01
4085;BME280;2057;50.858;6.572;2023-02-28T07:45:21;101733.22;;;-0.97;83.39
4085;BME280;2057;50.858;6.572;2023-02-28T07:47:48;101732.88;;;-0.92;83.24
4085;BME280;2057;50.858;6.572;2023-02-28T07:50:15;101730.00;;;-0.88;82.63
4085;BME280;2057;50.858;6.572;2023-02-28T07:52:41;101731.06;;;-0.79;82.53
4085;BME280;2057;50.858;6.572;2023-02-28T07:55:08;101725.72;;;-0.75;81.02
4085;BME280;2057;50.858;6.572;2023-02-28T07:57:34;101728.56;;;-0.79;81.48
4085;BME280;2057;50.858;6.572;2023-02-28T08:00:00;101729.97;;;-0.67;81.00
4085;BME280;2057;50.858;6.572;2023-02-28T08:02:25;101723.38;;;-0.66;80.38
4085;BME280;2057;50.858;6.572;2023-02-28T08:04:51;101729.56;;;-0.55;80.61
4085;BME280;2057;50.858;6.572;2023-02-28T08:07:17;101730.09;;;-0.51;79.45
4085;BME280;2057;50.858;6.572;2023-02-28T08:09:45;101730.63;;;-0.46;79.02
4085;BME280;2057;50.858;6.572;2023-02-28T08:12:11;101727.06;;;-0.41;77.04
4085;BME280;2057;50.858;6.572;2023-02-28T08:14:37;101732.19;;;-0.32;78.14
4085;BME280;2057;50.858;6.572;2023-02-28T08:17:04;101732.16;;;-0.25;77.63
4085;BME280;2057;50.858;6.572;2023-02-28T08:19:29;101744.44;;;-0.19;77.51
4085;BME280;2057;50.858;6.572;2023-02-28T08:21:55;101738.38;;;-0.14;75.28
4085;BME280;2057;50.858;6.572;2023-02-28T08:24:24;101741.38;;;-0.09;75.15
4085;BME280;2057;50.858;6.572;2023-02-28T08:26:50;101733.31;;;0.01;74.84
4085;BME280;2057;50.858;6.572;2023-02-28T08:29:15;101734.34;;;0.10;73.90
4085;BME280;2057;50.858;6.572;2023-02-28T08:31:41;101734.13;;;0.15;74.27
4085;BME280;2057;50.858;6.572;2023-02-28T08:34:14;101736.06;;;0.18;71.58
4085;BME280;2057;50.858;6.572;2023-02-28T08:36:42;101738.38;;;0.24;70.28
4085;BME280;2057;50.858;6.572;2023-02-28T08:39:11;101744.53;;;0.35;70.97
4085;BME280;2057;50.858;6.572;2023-02-28T08:41:36;101729.66;;;0.43;69.64
4085;BME280;2057;50.858;6.572;2023-02-28T08:44:02;101741.63;;;0.46;69.16
4085;BME280;2057;50.858;6.572;2023-02-28T08:46:28;101737.84;;;0.50;68.26
4085;BME280;2057;50.858;6.572;2023-02-28T08:48:54;101732.22;;;0.59;68.64
4085;BME280;2057;50.858;6.572;2023-02-28T08:51:21;101738.63;;;0.65;68.06
4085;BME280;2057;50.858;6.572;2023-02-28T08:53:55;101741.44;;;0.68;67.33
4085;BME280;2057;50.858;6.572;2023-02-28T08:56:21;101744.13;;;0.69;65.09
4085;BME280;2057;50.858;6.572;2023-02-28T08:58:48;101737.59;;;0.78;66.23
4085;BME280;2057;50.858;6.572;2023-02-28T09:01:20;101740.59;;;0.83;65.31
4085;BME280;2057;50.858;6.572;2023-02-28T09:03:47;101741.09;;;0.88;64.73
4085;BME280;2057;50.858;6.572;2023-02-28T09:06:14;101735.88;;;0.93;64.74
4085;BME280;2057;50.858;6.572;2023-02-28T09:08:40;101748.50;;;1.02;64.03
4085;BME280;2057;50.858;6.572;2023-02-28T09:11:06;101735.03;;;1.09;63.47
4085;BME280;2057;50.858;6.572;2023-02-28T09:13:32;101743.94;;;1.14;61.93
4085;BME280;2057;50.858;6.572;2023-02-28T09:16:02;101745.72;;;1.15;61.17
4085;BME280;2057;50.858;6.572;2023-02-28T09:18:28;101742.78;;;1.19;61.88
4085;BME280;2057;50.858;6.572;2023-02-28T09:20:56;101735.16;;;1.34;61.93
4085;BME280;2057;50.858;6.572;2023-02-28T09:23:23;101730.78;;;1.24;60.43
4085;BME280;2057;50.858;6.572;2023-02-28T09:25:53;101729.50;;;1.28;60.76
4085;BME280;2057;50.858;6.572;2023-02-28T09:28:19;101734.13;;;1.32;59.58
4085;BME280;2057;50.858;6.572;2023-02-28T09:30:47;101726.91;;;1.35;59.04
4085;BME280;2057;50.858;6.572;2023-02-28T09:33:13;101731.59;;;1.48;60.12
4085;BME280;2057;50.858;6.572;2023-02-28T09:35:39;101732.09;;;1.52;59.07
4085;BME280;2057;50.858;6.572;2023-02-28T09:38:05;101715.00;;;1.64;59.21
4085;BME280;2057;50.858;6.572;2023-02-28T09:40:36;101720.25;;;1.59;58.53
4085;BME280;2057;50.858;6.572;2023-02-28T09:43:01;101726.50;;;1.71;59.10
4085;BME280;2057;50.858;6.572;2023-02-28T09:45:33;101727.19;;;1.61;57.43
4085;BME280;2057;50.858;6.572;2023-02-28T09:48:04;101727.91;;;1.76;57.94
4085;BME280;2057;50.858;6.572;2023-02-28T09:50:41;101719.47;;;1.76;57.08
4085;BME280;2057;50.858;6.572;2023-02-28T09:53:30;101718.66;;;1.84;57.39
4085;BME280;2057;50.858;6.572;2023-02-28T09:56:20;101718.19;;;1.79;57.25
4085;BME280;2057;50.858;6.572;2023-02-28T09:59:17;101720.81;;;1.97;57.84
4085;BME280;2057;50.858;6.572;2023-02-28T10:02:09;101715.09;;;1.98;57.05
4085;BME280;2057;50.858;6.572;2023-02-28T10:10:14;101730.13;;;2.23;54.90
4085;BME280;2057;50.858;6.572;2023-02-28T10:12:45;101728.78;;;2.17;55.45
4085;BME280;2057;50.858;6.572;2023-02-28T10:15:15;101727.34;;;2.19;57.02
4085;BME280;2057;50.858;6.572;2023-02-28T10:17:44;101722.59;;;2.39;56.79
4085;BME280;2057;50.858;6.572;2023-02-28T10:20:11;101724.03;;;2.37;55.79
4085;BME280;2057;50.858;6.572;2023-02-28T10:25:33;101722.22;;;2.51;55.83
4085;BME280;2057;50.858;6.572;2023-02-28T10:28:22;101726.13;;;2.41;56.65
4085;BME280;2057;50.858;6.572;2023-02-28T10:30:52;101720.19;;;2.65;57.31
4085;BME280;2057;50.858;6.572;2023-02-28T10:35:46;101727.56;;;2.63;55.94
4085;BME280;2057;50.858;6.572;2023-02-28T10:38:19;101720.63;;;2.61;54.13
4085;BME280;2057;50.858;6.572;2023-02-28T10:40:45;101724.13;;;2.54;55.13
4085;BME280;2057;50.858;6.572;2023-02-28T10:45:40;101714.25;;;2.80;55.70
4085;BME280;2057;50.858;6.572;2023-02-28T10:56:15;101707.50;;;3.06;53.33
4085;BME280;2057;50.858;6.572;2023-02-28T10:59:28;101704.81;;;2.95;53.82
4085;BME280;2057;50.858;6.572;2023-02-28T11:01:48;101705.19;;;3.07;54.76
4085;BME280;2057;50.858;6.572;2023-02-28T11:07:05;101698.00;;;3.37;55.94
4085;BME280;2057;50.858;6.572;2023-02-28T11:09:50;101690.88;;;3.33;51.82
4085;BME280;2057;50.858;6.572;2023-02-28T11:12:36;101690.13;;;3.16;54.29
4085;BME280;2057;50.858;6.572;2023-02-28T11:15:18;101695.03;;;3.41;55.16
4085;BME280;2057;50.858;6.572;2023-02-28T11:20:38;101684.25;;;3.33;54.00
4085;BME280;2057;50.858;6.572;2023-02-28T11:23:04;101688.69;;;3.36;54.33
4085;BME280;2057;50.858;6.572;2023-02-28T11:25:37;101687.25;;;3.55;55.53
4085;BME280;2057;50.858;6.572;2023-02-28T11:28:06;101687.66;;;3.69;55.00
4085;BME280;2057;50.858;6.572;2023-02-28T11:33:28;101693.00;;;3.72;54.36
4085;BME280;2057;50.858;6.572;2023-02-28T11:36:02;101693.56;;;3.78;54.36
4085;BME280;2057;50.858;6.572;2023-02-28T11:38:28;101690.59;;;3.82;54.00
4085;BME280;2057;50.858;6.572;2023-02-28T11:44:00;101680.41;;;3.45;53.16
4085;BME280;2057;50.858;6.572;2023-02-28T11:46:42;101693.41;;;3.85;54.38
4085;BME280;2057;50.858;6.572;2023-02-28T11:54:54;101690.78;;;3.84;52.86
4085;BME280;2057;50.858;6.572;2023-02-28T12:00:40;101685.44;;;3.81;53.95
4085;BME280;2057;50.858;6.572;2023-02-28T12:03:17;101681.00;;;3.87;53.28
4085;BME280;2057;50.858;6.572;2023-02-28T12:09:10;101674.16;;;4.03;54.20
4085;BME280;2057;50.858;6.572;2023-02-28T12:11:55;101679.66;;;3.90;54.27
4085;BME280;2057;50.858;6.572;2023-02-28T12:14:41;101677.75;;;3.88;54.00
4085;BME280;2057;50.858;6.572;2023-02-28T12:28:11;101667.50;;;4.58;53.39
4085;BME280;2057;50.858;6.572;2023-02-28T12:30:41;101662.78;;;4.52;52.55
4085;BME280;2057;50.858;6.572;2023-02-28T12:33:14;101655.47;;;4.73;52.80
4085;BME280;2057;50.858;6.572;2023-02-28T12:35:51;101653.91;;;4.84;50.84
4085;BME280;2057;50.858;6.572;2023-02-28T12:38:31;101642.72;;;4.99;52.87
4085;BME280;2057;50.858;6.572;2023-02-28T12:41:12;101632.75;;;4.82;52.31
4085;BME280;2057;50.858;6.572;2023-02-28T12:43:43;101642.38;;;4.86;53.15
4085;BME280;2057;50.858;6.572;2023-02-28T12:46:48;101639.63;;;5.02;54.02
4085;BME280;2057;50.858;6.572;2023-02-28T12:51:44;101638.47;;;4.70;51.53
4085;BME280;2057;50.858;6.572;2023-02-28T12:54:35;101632.47;;;4.51;51.97
4085;BME280;2057;50.858;6.572;2023-02-28T12:57:22;101622.53;;;4.61;53.63
4085;BME280;2057;50.858;6.572;2023-02-28T12:59:54;101624.88;;;4.60;53.14
4085;BME280;2057;50.858;6.572;2023-02-28T13:10:39;101608.63;;;4.56;53.17
4085;BME280;2057;50.858;6.572;2023-02-28T13:13:06;101607.16;;;4.58;53.57
4085;BME280;2057;50.858;6.572;2023-02-28T13:15:31;101603.16;;;4.60;53.67
4085;BME280;2057;50.858;6.572;2023-02-28T13:18:00;101602.75;;;4.75;54.43
4085;BME280;2057;50.858;6.572;2023-02-28T13:20:30;101597.28;;;4.79;53.51
4085;BME280;2057;50.858;6.572;2023-02-28T13:22:58;101606.44;;;4.78;53.89
4085;BME280;2057;50.858;6.572;2023-02-28T13:27:58;101592.13;;;4.96;53.12
4085;BME280;2057;50.858;6.572;2023-02-28T13:35:44;101591.56;;;5.28;53.17
4085;BME280;2057;50.858;6.572;2023-02-28T13:38:23;101585.06;;;5.30;52.32
4085;BME280;2057;50.858;6.572;2023-02-28T13:40:49;101593.88;;;5.36;51.41
4085;BME280;2057;50.858;6.572;2023-02-28T13:43:17;101584.44;;;5.33;51.18
4085;BME280;2057;50.858;6.572;2023-02-28T13:46:06;101579.91;;;5.58;51.72
4085;BME280;2057;50.858;6.572;2023-02-28T13:48:33;101589.66;;;5.45;50.09
4085;BME280;2057;50.858;6.572;2023-02-28T13:50:58;101582.44;;;5.69;50.55
4085;BME280;2057;50.858;6.572;2023-02-28T13:54:07;101580.38;;;5.84;50.75
4085;BME280;2057;50.858;6.572;2023-02-28T13:56:32;101579.59;;;5.74;51.11
4085;BME280;2057;50.858;6.572;2023-02-28T13:59:16;101585.94;;;5.60;50.48
4085;BME280;2057;50.858;6.572;2023-02-28T14:04:48;101572.31;;;5.48;51.21
4085;BME280;2057;50.858;6.572;2023-02-28T14:07:28;101570.81;;;5.60;51.41
4085;BME280;2057;50.858;6.572;2023-02-28T14:10:23;101570.66;;;5.48;50.26
4085;BME280;2057;50.858;6.572;2023-02-28T14:15:45;101569.84;;;5.69;50.45
4085;BME280;2057;50.858;6.572;2023-02-28T14:18:20;101572.38;;;5.69;50.32
4085;BME280;2057;50.858;6.572;2023-02-28T14:20:47;101572.53;;;6.00;50.90
4085;BME280;2057;50.858;6.572;2023-02-28T14:26:06;101569.81;;;6.27;49.94
4085;BME280;2057;50.858;6.572;2023-02-28T14:29:14;101557.09;;;5.96;50.23
4085;BME280;2057;50.858;6.572;2023-02-28T14:31:40;101570.03;;;6.20;51.00
4085;BME280;2057;50.858;6.572;2023-02-28T14:34:16;101567.53;;;6.10;51.29
4085;BME280;2057;50.858;6.572;2023-02-28T14:36:46;101560.50;;;6.26;50.63
4085;BME280;2057;50.858;6.572;2023-02-28T14:39:31;101558.75;;;6.36;50.46
4085;BME280;2057;50.858;6.572;2023-02-28T14:41:57;101559.63;;;6.78;51.40
4085;BME280;2057;50.858;6.572;2023-02-28T14:44:28;101558.72;;;6.56;49.98
4085;BME280;2057;50.858;6.572;2023-02-28T14:47:00;101559.75;;;6.48;49.22
4085;BME280;2057;50.858;6.572;2023-02-28T14:49:44;101547.25;;;6.81;49.20
4085;BME280;2057;50.858;6.572;2023-02-28T14:52:20;101549.16;;;6.63;48.83
4085;BME280;2057;50.858;6.572;2023-02-28T14:54:53;101558.47;;;6.74;48.46
4085;BME280;2057;50.858;6.572;2023-02-28T14:57:55;101555.44;;;6.47;49.14
4085;BME280;2057;50.858;6.572;2023-02-28T15:00:27;101549.50;;;6.88;49.16
4085;BME280;2057;50.858;6.572;2023-02-28T15:02:53;101547.47;;;6.94;48.62
4085;BME280;2057;50.858;6.572;2023-02-28T15:08:12;101552.16;;;7.00;48.71
4085;BME280;2057;50.858;6.572;2023-02-28T15:10:50;101549.03;;;6.92;49.05
4085;BME280;2057;50.858;6.572;2023-02-28T15:13:17;101545.06;;;7.49;48.00
4085;BME280;2057;50.858;6.572;2023-02-28T15:18:20;101541.09;;;7.20;47.22
4085;BME280;2057;50.858;6.572;2023-02-28T15:20:48;101538.00;;;7.12;47.22
4085;BME280;2057;50.858;6.572;2023-02-28T15:23:17;101536.69;;;7.17;46.96
4085;BME280;2057;50.858;6.572;2023-02-28T15:25:44;101535.00;;;7.06;47.60
4085;BME280;2057;50.858;6.572;2023-02-28T15:28:16;101539.03;;;7.04;47.58
4085;BME280;2057;50.858;6.572;2023-02-28T15:30:52;101541.78;;;7.07;47.14